createdAt,value
2018-12-14T00:00:00.761Z,983.5
2018-12-14T00:01:02.503Z,983.5
2018-12-14T00:02:03.844Z,983.5
2018-12-14T00:03:05.109Z,983.5
2018-12-14T00:04:06.363Z,983.5
2018-12-14T00:05:07.613Z,983.5
2018-12-14T00:06:09.605Z,983.4
2018-12-14T00:07:13.078Z,983.5
2018-12-14T00:08:14.340Z,983.5
2018-12-14T00:09:15.660Z,983.5
2018-12-14T00:10:18.131Z,983.5
2018-12-14T00:11:19.417Z,983.1
2018-12-14T00:12:20.791Z,983.5
2018-12-14T00:13:22.037Z,983.5
2018-12-14T00:14:23.286Z,983.5
2018-12-14T00:15:24.533Z,983.4
2018-12-14T00:16:25.864Z,983.5
2018-12-14T00:17:27.082Z,983.5
2018-12-14T00:18:28.318Z,983.5
2018-12-14T00:19:29.575Z,983.4
2018-12-14T00:20:30.827Z,983.4
2018-12-14T00:21:32.135Z,983.5
2018-12-14T00:22:33.731Z,983.4
2018-12-14T00:23:34.980Z,983.4
2018-12-14T00:24:36.246Z,983.4
2018-12-14T00:25:37.504Z,983.4
2018-12-14T00:26:38.793Z,983.4
2018-12-14T00:27:40.074Z,983.4
2018-12-14T00:28:41.329Z,983.3
2018-12-14T00:29:42.793Z,983.4
2018-12-14T00:30:44.032Z,983.5
2018-12-14T00:31:45.323Z,983.4
2018-12-14T00:32:46.584Z,983.5
2018-12-14T00:33:47.833Z,983.4
2018-12-14T00:34:49.086Z,983.5
2018-12-14T00:35:50.331Z,983.5
2018-12-14T00:36:51.635Z,983.4
2018-12-14T00:37:52.915Z,983.5
2018-12-14T00:38:54.306Z,983.3
2018-12-14T00:39:55.575Z,983.6
2018-12-14T00:40:56.956Z,983.6
2018-12-14T00:41:58.262Z,983.6
2018-12-14T00:42:59.502Z,983.7
2018-12-14T00:44:00.843Z,983.6
2018-12-14T00:45:02.096Z,983.7
2018-12-14T00:46:06.059Z,983.7
2018-12-14T00:47:08.091Z,983.6
2018-12-14T00:48:09.855Z,983.7
2018-12-14T00:49:11.291Z,983.7
2018-12-14T00:50:13.846Z,983.7
2018-12-14T00:51:15.111Z,983.7
2018-12-14T00:52:16.395Z,983.7
2018-12-14T00:53:17.649Z,983.7
2018-12-14T00:54:18.884Z,983.7
2018-12-14T00:55:20.109Z,983.7
2018-12-14T00:56:23.677Z,983.7
2018-12-14T00:57:25.187Z,983.8
2018-12-14T00:58:29.326Z,983.7
2018-12-14T00:59:30.566Z,983.9
2018-12-14T01:00:34.128Z,983.9
2018-12-14T01:01:35.379Z,983.7
2018-12-14T01:02:36.646Z,983.9
2018-12-14T01:03:37.926Z,983.9
2018-12-14T01:04:39.290Z,983.9
2018-12-14T01:05:40.981Z,983.9
2018-12-14T01:06:42.232Z,983.9
2018-12-14T01:07:43.515Z,984
2018-12-14T01:08:51.264Z,983.9
2018-12-14T01:09:52.515Z,983.9
2018-12-14T01:10:53.760Z,984
2018-12-14T01:11:58.927Z,983.9
2018-12-14T01:13:00.195Z,983.7
2018-12-14T01:14:01.441Z,983.9
2018-12-14T01:15:05.234Z,983.8
2018-12-14T01:16:08.891Z,984
2018-12-14T01:17:10.486Z,983.9
2018-12-14T01:18:11.753Z,984
2018-12-14T01:19:13.014Z,983.9
2018-12-14T01:20:14.253Z,983.7
2018-12-14T01:21:15.491Z,983.9
2018-12-14T01:22:16.753Z,983.9
2018-12-14T01:23:18.149Z,984
2018-12-14T01:24:19.373Z,983.8
2018-12-14T01:25:20.586Z,984
2018-12-14T01:26:21.813Z,983.9
2018-12-14T01:27:23.074Z,983.9
2018-12-14T01:28:24.333Z,983.9
2018-12-14T01:29:27.571Z,983.7
2018-12-14T01:30:28.811Z,983.9
2018-12-14T01:31:30.058Z,983.9
2018-12-14T01:32:31.311Z,983.8
2018-12-14T01:33:32.563Z,983.9
2018-12-14T01:34:33.854Z,984
2018-12-14T01:35:35.087Z,983.9
2018-12-14T01:36:36.328Z,983.9
2018-12-14T01:37:37.571Z,983.8
2018-12-14T01:38:39.252Z,984
2018-12-14T01:39:40.513Z,983.9
2018-12-14T01:40:41.779Z,983.9
2018-12-14T01:41:45.260Z,983.9
2018-12-14T01:42:48.725Z,984
2018-12-14T01:43:52.352Z,983.9
2018-12-14T01:44:53.574Z,983.8
2018-12-14T01:45:54.801Z,983.9
2018-12-14T01:46:58.216Z,983.9
2018-12-14T01:47:59.538Z,983.9
2018-12-14T01:49:00.845Z,983.9
2018-12-14T01:50:02.094Z,983.9
2018-12-14T01:51:03.334Z,983.9
2018-12-14T01:52:04.612Z,983.9
2018-12-14T01:53:05.855Z,983.9
2018-12-14T01:54:10.209Z,984
2018-12-14T01:55:11.451Z,983.9
2018-12-14T01:56:13.029Z,984
2018-12-14T01:57:14.268Z,983.9
2018-12-14T01:58:16.970Z,983.8
2018-12-14T01:59:18.234Z,983.8
2018-12-14T02:00:19.450Z,984
2018-12-14T02:01:20.707Z,983.9
2018-12-14T02:02:22.309Z,983.7
2018-12-14T02:03:23.567Z,983.9
2018-12-14T02:04:24.825Z,983.7
2018-12-14T02:05:26.071Z,983.9
2018-12-14T02:06:27.318Z,983.8
2018-12-14T02:07:29.928Z,984
2018-12-14T02:08:31.164Z,983.9
2018-12-14T02:09:32.456Z,983.9
2018-12-14T02:10:33.689Z,983.8
2018-12-14T02:11:34.942Z,983.8
2018-12-14T02:12:36.187Z,983.9
2018-12-14T02:13:37.430Z,983.9
2018-12-14T02:14:38.706Z,984
2018-12-14T02:15:39.945Z,984
2018-12-14T02:16:41.196Z,984
2018-12-14T02:17:46.472Z,984
2018-12-14T02:18:47.703Z,983.9
2018-12-14T02:19:48.983Z,984
2018-12-14T02:20:54.926Z,983.9
2018-12-14T02:21:56.158Z,984
2018-12-14T02:22:57.375Z,984
2018-12-14T02:23:58.654Z,983.9
2018-12-14T02:24:59.969Z,984
2018-12-14T02:26:01.218Z,983.9
2018-12-14T02:27:02.467Z,984
2018-12-14T02:28:03.711Z,983.9
2018-12-14T02:29:04.939Z,983.9
2018-12-14T02:30:06.221Z,983.9
2018-12-14T02:31:07.447Z,983.9
2018-12-14T02:32:08.723Z,983.8
2018-12-14T02:33:09.979Z,983.9
2018-12-14T02:34:11.211Z,983.8
2018-12-14T02:35:12.534Z,983.9
2018-12-14T02:36:13.770Z,983.8
2018-12-14T02:37:15.030Z,983.9
2018-12-14T02:38:16.287Z,983.9
2018-12-14T02:39:17.514Z,983.9
2018-12-14T02:40:19.133Z,984
2018-12-14T02:41:20.373Z,983.9
2018-12-14T02:42:21.601Z,984
2018-12-14T02:43:22.838Z,984
2018-12-14T02:44:24.116Z,983.9
2018-12-14T02:45:25.734Z,983.8
2018-12-14T02:46:26.961Z,983.6
2018-12-14T02:47:28.214Z,983.8
2018-12-14T02:48:29.451Z,983.9
2018-12-14T02:49:30.686Z,983.9
2018-12-14T02:50:31.974Z,983.9
2018-12-14T02:51:33.189Z,983.9
2018-12-14T02:52:34.444Z,983.9
2018-12-14T02:53:35.699Z,983.8
2018-12-14T02:54:39.446Z,983.9
2018-12-14T02:55:40.964Z,983.7
2018-12-14T02:56:42.389Z,983.2
2018-12-14T02:57:46.037Z,983.8
2018-12-14T02:58:47.273Z,983.8
2018-12-14T02:59:48.502Z,983.7
2018-12-14T03:00:49.857Z,983.9
2018-12-14T03:01:51.434Z,983.8
2018-12-14T03:02:52.657Z,983.9
2018-12-14T03:03:53.888Z,983.8
2018-12-14T03:04:55.147Z,983.8
2018-12-14T03:05:56.410Z,983.8
2018-12-14T03:06:57.653Z,983.7
2018-12-14T03:07:58.898Z,983.8
2018-12-14T03:09:00.151Z,983.7
2018-12-14T03:10:01.373Z,983.8
2018-12-14T03:11:03.179Z,983.7
2018-12-14T03:12:04.460Z,983.8
2018-12-14T03:13:05.699Z,983.7
2018-12-14T03:14:06.930Z,983.6
2018-12-14T03:15:08.198Z,983.7
2018-12-14T03:16:09.482Z,983.7
2018-12-14T03:17:10.719Z,983.7
2018-12-14T03:18:11.967Z,983.6
2018-12-14T03:19:13.201Z,982.9
2018-12-14T03:20:14.431Z,983.7
2018-12-14T03:21:15.723Z,983.7
2018-12-14T03:22:17.147Z,983.7
2018-12-14T03:23:18.362Z,983.8
2018-12-14T03:24:19.607Z,983.6
2018-12-14T03:25:20.830Z,983.7
2018-12-14T03:26:22.298Z,983.8
2018-12-14T03:27:23.522Z,983.8
2018-12-14T03:28:24.770Z,983.8
2018-12-14T03:29:26.005Z,983.7
2018-12-14T03:30:27.254Z,983.7
2018-12-14T03:31:28.820Z,983.7
2018-12-14T03:32:30.037Z,983.7
2018-12-14T03:33:31.264Z,983.7
2018-12-14T03:34:32.509Z,983.6
2018-12-14T03:35:33.734Z,983.6
2018-12-14T03:36:34.990Z,983.7
2018-12-14T03:37:36.231Z,983.7
2018-12-14T03:38:37.815Z,983.8
2018-12-14T03:39:39.068Z,983.6
2018-12-14T03:40:40.319Z,983.6
2018-12-14T03:41:41.678Z,983.5
2018-12-14T03:42:42.911Z,983.7
2018-12-14T03:43:44.140Z,983.6
2018-12-14T03:44:45.394Z,983.5
2018-12-14T03:45:47.406Z,983.6
2018-12-14T03:46:48.682Z,983.6
2018-12-14T03:47:49.927Z,983.6
2018-12-14T03:48:51.158Z,983.6
2018-12-14T03:49:52.734Z,983.5
2018-12-14T03:50:53.958Z,983.6
2018-12-14T03:51:55.230Z,983.6
2018-12-14T03:52:56.463Z,983.5
2018-12-14T03:53:57.702Z,983.6
2018-12-14T03:54:58.940Z,983.6
2018-12-14T03:56:00.199Z,983.7
2018-12-14T03:57:01.482Z,983.7
2018-12-14T03:58:02.729Z,983.7
2018-12-14T03:59:03.991Z,983.6
2018-12-14T04:00:05.206Z,983.7
2018-12-14T04:01:06.447Z,983.7
2018-12-14T04:02:07.711Z,983.6
2018-12-14T04:03:08.954Z,983.7
2018-12-14T04:04:10.282Z,983.7
2018-12-14T04:05:11.825Z,983.8
2018-12-14T04:06:13.066Z,983.7
2018-12-14T04:07:14.350Z,983.7
2018-12-14T04:08:15.683Z,983.6
2018-12-14T04:09:16.917Z,983.7
2018-12-14T04:10:18.170Z,983.7
2018-12-14T04:11:19.423Z,983.7
2018-12-14T04:12:20.866Z,983.8
2018-12-14T04:13:22.126Z,983.9
2018-12-14T04:14:23.656Z,983.9
2018-12-14T04:15:24.886Z,983.9
2018-12-14T04:16:26.137Z,983.9
2018-12-14T04:17:27.424Z,983.9
2018-12-14T04:18:28.658Z,983.9
2018-12-14T04:19:29.911Z,983.8
2018-12-14T04:20:31.152Z,983.8
2018-12-14T04:21:32.382Z,983.8
2018-12-14T04:22:33.824Z,983.9
2018-12-14T04:23:35.087Z,983.8
2018-12-14T04:24:36.346Z,983.9
2018-12-14T04:25:37.582Z,983.9
2018-12-14T04:26:38.810Z,983.9
2018-12-14T04:27:43.983Z,983.8
2018-12-14T04:28:45.226Z,983.8
2018-12-14T04:29:46.510Z,983.9
2018-12-14T04:30:47.768Z,983.9
2018-12-14T04:31:49.012Z,983.8
2018-12-14T04:32:50.278Z,983.9
2018-12-14T04:33:51.593Z,983.9
2018-12-14T04:34:52.836Z,983.9
2018-12-14T04:35:54.098Z,983.7
2018-12-14T04:36:55.315Z,983.9
2018-12-14T04:37:56.586Z,983.9
2018-12-14T04:38:57.826Z,983.9
2018-12-14T04:39:59.063Z,983.9
2018-12-14T04:41:00.294Z,983.7
2018-12-14T04:42:01.520Z,983.8
2018-12-14T04:43:02.827Z,983.8
2018-12-14T04:44:06.225Z,983.9
2018-12-14T04:45:07.462Z,983.9
2018-12-14T04:46:08.699Z,984
2018-12-14T04:47:09.941Z,983.9
2018-12-14T04:48:11.202Z,983.9
2018-12-14T04:49:12.542Z,983.9
2018-12-14T04:50:13.807Z,983.8
2018-12-14T04:51:15.300Z,983.8
2018-12-14T04:52:18.546Z,983.9
2018-12-14T04:53:19.829Z,983.8
2018-12-14T04:54:21.060Z,983.8
2018-12-14T04:55:22.278Z,983.9
2018-12-14T04:56:23.510Z,984
2018-12-14T04:57:26.307Z,984
2018-12-14T04:58:27.589Z,983.9
2018-12-14T04:59:28.866Z,983.9
2018-12-14T05:00:30.422Z,984
2018-12-14T05:01:31.685Z,983.9
2018-12-14T05:02:32.938Z,983.8
2018-12-14T05:03:34.233Z,984
2018-12-14T05:04:35.507Z,983.8
2018-12-14T05:05:36.747Z,983.8
2018-12-14T05:06:37.995Z,983.8
2018-12-14T05:07:39.274Z,983.9
2018-12-14T05:08:40.546Z,983.9
2018-12-14T05:09:41.795Z,983.8
2018-12-14T05:10:43.311Z,983.9
2018-12-14T05:11:44.556Z,983.8
2018-12-14T05:12:45.804Z,983.8
2018-12-14T05:13:47.096Z,983.8
2018-12-14T05:14:48.346Z,983.9
2018-12-14T05:15:49.615Z,983.8
2018-12-14T05:16:50.853Z,983.9
2018-12-14T05:17:52.095Z,983.8
2018-12-14T05:18:53.649Z,983.8
2018-12-14T05:19:54.994Z,983.6
2018-12-14T05:20:59.258Z,984
2018-12-14T05:22:00.531Z,983.8
2018-12-14T05:23:04.728Z,983.9
2018-12-14T05:24:05.990Z,983.8
2018-12-14T05:25:07.957Z,983.7
2018-12-14T05:26:09.166Z,983.8
2018-12-14T05:27:10.418Z,983.5
2018-12-14T05:28:14.347Z,983.8
2018-12-14T05:29:15.657Z,983.7
2018-12-14T05:30:16.875Z,983.8
2018-12-14T05:31:18.156Z,983.7
2018-12-14T05:32:19.401Z,983.7
2018-12-14T05:33:20.634Z,983.9
2018-12-14T05:34:21.936Z,984
2018-12-14T05:35:25.313Z,983.5
2018-12-14T05:36:27.819Z,983.7
2018-12-14T05:37:29.067Z,983.8
2018-12-14T05:38:30.318Z,984
2018-12-14T05:39:31.634Z,983.9
2018-12-14T05:40:32.870Z,983.9
2018-12-14T05:41:34.118Z,983.9
2018-12-14T05:42:35.417Z,983.9
2018-12-14T05:43:37.217Z,983.7
2018-12-14T05:44:38.501Z,983.8
2018-12-14T05:45:39.747Z,983.8
2018-12-14T05:46:41.050Z,983.7
2018-12-14T05:47:42.314Z,983.9
2018-12-14T05:48:43.567Z,983.9
2018-12-14T05:49:44.846Z,983.8
2018-12-14T05:50:46.348Z,983.9
2018-12-14T05:51:47.575Z,983.9
2018-12-14T05:52:48.795Z,983.7
2018-12-14T05:53:50.040Z,983.8
2018-12-14T05:54:51.365Z,983.8
2018-12-14T05:55:54.258Z,983.7
2018-12-14T05:56:55.515Z,983.8
2018-12-14T05:57:57.410Z,983.8
2018-12-14T05:59:01.096Z,983.6
2018-12-14T06:00:05.374Z,983.8
2018-12-14T06:01:06.602Z,983.7
2018-12-14T06:02:08.222Z,983.8
2018-12-14T06:03:09.578Z,983.8
2018-12-14T06:04:10.827Z,983.6
2018-12-14T06:05:12.110Z,983.9
2018-12-14T06:06:13.563Z,983.9
2018-12-14T06:07:16.236Z,983.8
2018-12-14T06:08:20.498Z,983.9
2018-12-14T06:09:21.725Z,984
2018-12-14T06:10:23.293Z,984
2018-12-14T06:11:24.569Z,983.8
2018-12-14T06:12:25.828Z,983.8
2018-12-14T06:13:27.075Z,983.9
2018-12-14T06:14:28.334Z,983.8
2018-12-14T06:15:30.244Z,983.8
2018-12-14T06:16:31.494Z,983.9
2018-12-14T06:17:33.047Z,983.9
2018-12-14T06:18:34.314Z,983.8
2018-12-14T06:19:35.573Z,984
2018-12-14T06:20:36.871Z,983.8
2018-12-14T06:21:38.138Z,983.9
2018-12-14T06:22:39.377Z,984
2018-12-14T06:23:40.643Z,984
2018-12-14T06:24:44.470Z,983.2
2018-12-14T06:25:45.729Z,983.8
2018-12-14T06:26:46.978Z,983.9
2018-12-14T06:27:48.262Z,983.7
2018-12-14T06:28:49.603Z,984.1
2018-12-14T06:29:50.858Z,983.9
2018-12-14T06:30:52.566Z,983.9
2018-12-14T06:31:53.830Z,984.2
2018-12-14T06:32:55.066Z,984
2018-12-14T06:33:58.442Z,984.1
2018-12-14T06:35:00.167Z,984
2018-12-14T06:36:01.798Z,984
2018-12-14T06:37:03.052Z,984
2018-12-14T06:38:04.359Z,984
2018-12-14T06:39:05.658Z,983.9
2018-12-14T06:40:06.894Z,984
2018-12-14T06:41:08.186Z,984.3
2018-12-14T06:42:09.445Z,984.3
2018-12-14T06:43:18.363Z,984.1
2018-12-14T06:44:19.626Z,984.1
2018-12-14T06:45:20.940Z,984.1
2018-12-14T06:46:22.451Z,984
2018-12-14T06:47:23.696Z,984.2
2018-12-14T06:48:25.404Z,984.1
2018-12-14T06:49:32.762Z,984.1
2018-12-14T06:50:33.998Z,984.3
2018-12-14T06:51:35.798Z,984.3
2018-12-14T06:52:37.043Z,984.3
2018-12-14T06:53:38.331Z,984.2
2018-12-14T06:54:39.590Z,984.3
2018-12-14T06:55:40.824Z,984.2
2018-12-14T06:57:54.628Z,984.3
2018-12-14T06:58:55.961Z,984.3
2018-12-14T06:59:58.275Z,984.2
2018-12-14T07:00:59.608Z,984.3
2018-12-14T07:02:01.330Z,984.4
2018-12-14T07:03:02.625Z,984.4
2018-12-14T07:04:03.991Z,984.4
2018-12-14T07:05:05.267Z,984.4
2018-12-14T07:06:07.894Z,984.4
2018-12-14T07:07:12.335Z,984.5
2018-12-14T07:08:13.620Z,984.4
2018-12-14T07:09:14.963Z,984.8
2018-12-14T07:10:16.251Z,984.6
2018-12-14T07:11:17.544Z,984.5
2018-12-14T07:12:18.980Z,984.4
2018-12-14T07:13:22.912Z,984.4
2018-12-14T07:14:24.393Z,984.4
2018-12-14T07:15:25.693Z,984.3
2018-12-14T07:16:26.983Z,984.4
2018-12-14T07:17:28.727Z,984.3
2018-12-14T07:18:32.945Z,984.4
2018-12-14T07:19:34.248Z,984.4
2018-12-14T07:20:35.572Z,984.4
2018-12-14T07:21:39.415Z,984.4
2018-12-14T07:22:41.109Z,984.5
2018-12-14T07:23:45.458Z,984.4
2018-12-14T07:24:46.977Z,984.4
2018-12-14T07:25:48.267Z,984.4
2018-12-14T07:26:49.607Z,984.4
2018-12-14T07:27:51.223Z,984.4
2018-12-14T07:28:52.543Z,984.4
2018-12-14T07:29:53.863Z,984.3
2018-12-14T07:30:55.162Z,984.4
2018-12-14T07:31:57.456Z,984.3
2018-12-14T07:32:58.775Z,984.3
2018-12-14T07:34:00.099Z,984.5
2018-12-14T07:35:01.646Z,984.6
2018-12-14T07:36:07.547Z,984.6
2018-12-14T07:37:09.299Z,984.5
2018-12-14T07:38:10.631Z,984.6
2018-12-14T07:39:13.647Z,984.5
2018-12-14T07:40:17.405Z,984.6
2018-12-14T07:41:18.748Z,984.6
2018-12-14T07:42:20.211Z,984.6
2018-12-14T07:43:29.866Z,984.7
2018-12-14T07:44:35.454Z,984.7
2018-12-14T07:45:39.777Z,984.7
2018-12-14T07:46:43.164Z,984.7
2018-12-14T07:47:47.673Z,984.7
2018-12-14T07:48:52.051Z,984.7
2018-12-14T07:49:53.915Z,984.8
2018-12-14T07:50:55.294Z,984.7
2018-12-14T07:51:56.602Z,984.7
2018-12-14T07:52:57.946Z,984.7
2018-12-14T07:54:01.622Z,984.7
2018-12-14T07:55:05.684Z,984.6
2018-12-14T07:56:07.013Z,984.7
2018-12-14T07:57:08.309Z,984.7
2018-12-14T07:58:09.701Z,984.8
2018-12-14T07:59:13.427Z,984.7
2018-12-14T08:00:17.573Z,984.7
2018-12-14T08:01:20.327Z,984.9
2018-12-14T08:02:23.285Z,984.8
2018-12-14T08:03:24.952Z,984.8
2018-12-14T08:04:26.307Z,984.9
2018-12-14T08:05:29.489Z,984.8
2018-12-14T08:06:30.820Z,984.8
2018-12-14T08:07:32.629Z,984.8
2018-12-14T08:08:33.958Z,984.8
2018-12-14T08:09:35.311Z,984.8
2018-12-14T08:10:36.652Z,984.8
2018-12-14T08:11:43.121Z,984.9
2018-12-14T08:12:44.474Z,984.8
2018-12-14T08:13:45.767Z,984.4
2018-12-14T08:14:50.177Z,984.9
2018-12-14T08:15:51.431Z,984.8
2018-12-14T08:16:52.699Z,985
2018-12-14T08:17:56.696Z,984.9
2018-12-14T08:18:57.963Z,984.9
2018-12-14T08:19:59.304Z,985
2018-12-14T08:21:00.570Z,985.1
2018-12-14T08:22:01.838Z,985.1
2018-12-14T08:23:04.398Z,985.1
2018-12-14T08:24:05.654Z,985
2018-12-14T08:25:06.950Z,984.9
2018-12-14T08:26:08.315Z,985
2018-12-14T08:27:09.579Z,985
2018-12-14T08:28:12.036Z,985
2018-12-14T08:29:13.295Z,985.1
2018-12-14T08:31:25.375Z,985.1
2018-12-14T08:32:32.605Z,985.2
2018-12-14T08:33:36.105Z,985.2
2018-12-14T08:34:40.296Z,985.1
2018-12-14T08:35:41.694Z,985
2018-12-14T08:36:45.947Z,985.1
2018-12-14T08:37:47.403Z,985.2
2018-12-14T08:38:48.690Z,985.2
2018-12-14T08:39:50.174Z,985.2
2018-12-14T08:40:51.521Z,985.2
2018-12-14T08:41:52.783Z,985.1
2018-12-14T08:42:54.193Z,985.1
2018-12-14T08:43:59.616Z,985.1
2018-12-14T08:45:02.109Z,985.1
2018-12-14T08:46:03.395Z,985.1
2018-12-14T08:47:06.106Z,985.2
2018-12-14T08:48:09.903Z,985.1
2018-12-14T08:49:11.344Z,985.1
2018-12-14T08:50:12.640Z,985.1
2018-12-14T08:51:16.712Z,985.1
2018-12-14T08:52:18.040Z,985.1
2018-12-14T08:53:22.296Z,985.2
2018-12-14T08:54:26.922Z,985.1
2018-12-14T08:55:31.189Z,985
2018-12-14T08:56:32.475Z,985.1
2018-12-14T08:57:33.746Z,985.1
2018-12-14T08:58:35.012Z,985.2
2018-12-14T08:59:36.600Z,985.2
2018-12-14T09:01:47.207Z,985.2
2018-12-14T09:02:48.451Z,985.2
2018-12-14T09:03:52.228Z,985.1
2018-12-14T09:04:54.880Z,985.1
2018-12-14T09:05:56.131Z,985.1
2018-12-14T09:06:57.480Z,985.2
2018-12-14T09:07:58.821Z,985.2
2018-12-14T09:09:00.382Z,985.2
2018-12-14T09:10:04.274Z,985.2
2018-12-14T09:11:06.918Z,985.2
2018-12-14T09:12:08.309Z,985
2018-12-14T09:13:09.615Z,985.2
2018-12-14T09:14:10.874Z,985.2
2018-12-14T09:15:14.276Z,985.3
2018-12-14T09:16:18.251Z,985.1
2018-12-14T09:17:19.574Z,985.1
2018-12-14T09:18:21.116Z,985.3
2018-12-14T09:19:22.394Z,985.3
2018-12-14T09:20:23.960Z,985.3
2018-12-14T09:21:28.535Z,985.3
2018-12-14T09:22:29.854Z,985.3
2018-12-14T09:23:31.132Z,985.3
2018-12-14T09:24:32.454Z,985.3
2018-12-14T09:25:33.702Z,985.2
2018-12-14T09:26:37.671Z,985.2
2018-12-14T09:27:39.049Z,985.2
2018-12-14T09:28:40.296Z,985.2
2018-12-14T09:29:41.511Z,985.2
2018-12-14T09:30:45.153Z,985.3
2018-12-14T09:31:46.635Z,985.2
2018-12-14T09:32:50.622Z,985.3
2018-12-14T09:33:51.920Z,985.3
2018-12-14T09:34:53.151Z,985.3
2018-12-14T09:35:54.420Z,985.3
2018-12-14T09:36:55.687Z,985.2
2018-12-14T09:37:57.030Z,985.2
2018-12-14T09:38:58.315Z,985.2
2018-12-14T09:39:59.713Z,985.2
2018-12-14T09:41:01.006Z,985.3
2018-12-14T09:42:05.206Z,985.3
2018-12-14T09:43:07.594Z,985.3
2018-12-14T09:44:12.161Z,985.3
2018-12-14T09:45:13.389Z,985.2
2018-12-14T09:46:14.705Z,985.2
2018-12-14T09:47:18.698Z,985.2
2018-12-14T09:48:20.299Z,985.2
2018-12-14T09:49:22.959Z,985.2
2018-12-14T09:50:26.135Z,985.2
2018-12-14T09:51:31.631Z,985.2
2018-12-14T09:52:36.084Z,985.3
2018-12-14T09:53:37.714Z,985.3
2018-12-14T09:54:39.523Z,985.3
2018-12-14T09:55:43.284Z,985.4
2018-12-14T09:56:44.532Z,985.4
2018-12-14T09:57:48.216Z,985.5
2018-12-14T09:58:49.508Z,985.4
2018-12-14T09:59:50.785Z,985.5
2018-12-14T10:00:58.094Z,985.4
2018-12-14T10:02:01.845Z,985.4
2018-12-14T10:03:03.114Z,985.4
2018-12-14T10:04:04.413Z,985.3
2018-12-14T10:05:05.667Z,985.4
2018-12-14T10:06:06.983Z,985.4
2018-12-14T10:07:13.375Z,985.4
2018-12-14T10:08:14.637Z,985.3
2018-12-14T10:09:16.413Z,985.4
2018-12-14T10:10:21.410Z,985.5
2018-12-14T10:11:27.812Z,985.4
2018-12-14T10:12:31.561Z,985.4
2018-12-14T10:13:32.826Z,985.5
2018-12-14T10:14:34.148Z,985.4
2018-12-14T10:15:37.506Z,985.4
2018-12-14T10:16:39.324Z,985.4
2018-12-14T10:17:40.599Z,985.5
2018-12-14T10:18:42.103Z,985.4
2018-12-14T10:19:43.420Z,985.5
2018-12-14T10:20:49.744Z,985.4
2018-12-14T10:21:57.544Z,985.3
2018-12-14T10:22:58.978Z,985.3
2018-12-14T10:24:00.293Z,985.3
2018-12-14T10:25:01.660Z,985.2
2018-12-14T10:26:02.907Z,985.3
2018-12-14T10:27:06.754Z,985.2
2018-12-14T10:28:08.020Z,985.2
2018-12-14T10:29:09.345Z,985.2
2018-12-14T10:30:16.294Z,985.2
2018-12-14T10:31:18.756Z,985.3
2018-12-14T10:32:20.155Z,985.2
2018-12-14T10:33:26.385Z,985.3
2018-12-14T10:34:27.641Z,985.2
2018-12-14T10:35:28.951Z,985.2
2018-12-14T10:36:35.540Z,985.2
2018-12-14T10:37:38.343Z,985.2
2018-12-14T10:38:42.455Z,985.2
2018-12-14T10:39:43.823Z,985.2
2018-12-14T10:40:50.310Z,985.2
2018-12-14T10:41:56.825Z,985.2
2018-12-14T10:42:58.076Z,985.2
2018-12-14T10:44:07.224Z,984.9
2018-12-14T10:45:08.813Z,985.2
2018-12-14T10:46:12.241Z,985.1
2018-12-14T10:47:15.335Z,985.2
2018-12-14T10:48:19.630Z,985.1
2018-12-14T10:49:20.937Z,985.1
2018-12-14T10:50:23.247Z,985.2
2018-12-14T10:51:29.567Z,985.2
2018-12-14T10:52:30.815Z,985.2
2018-12-14T10:53:32.662Z,985.1
2018-12-14T10:54:33.959Z,985.1
2018-12-14T10:55:37.505Z,985.1
2018-12-14T10:56:39.079Z,985.1
2018-12-14T10:57:40.862Z,985.1
2018-12-14T10:58:42.134Z,985.1
2018-12-14T10:59:43.430Z,985.1
2018-12-14T11:00:44.715Z,985.1
2018-12-14T11:01:46.504Z,985.1
2018-12-14T11:02:47.764Z,985.1
2018-12-14T11:03:49.118Z,985.1
2018-12-14T11:04:50.379Z,985.1
2018-12-14T11:05:51.677Z,985.1
2018-12-14T11:07:02.349Z,985.2
2018-12-14T11:08:03.624Z,985.1
2018-12-14T11:09:04.884Z,985
2018-12-14T11:10:09.259Z,985
2018-12-14T11:11:10.610Z,985
2018-12-14T11:12:16.452Z,985
2018-12-14T11:13:17.722Z,985
2018-12-14T11:14:20.795Z,985.1
2018-12-14T11:15:22.353Z,985
2018-12-14T11:16:23.646Z,985
2018-12-14T11:17:24.975Z,985
2018-12-14T11:18:26.217Z,985
2018-12-14T11:19:27.506Z,985
2018-12-14T11:20:34.757Z,985
2018-12-14T11:21:37.304Z,985
2018-12-14T11:22:38.608Z,985.2
2018-12-14T11:23:41.846Z,985.1
2018-12-14T11:24:44.264Z,985.2
2018-12-14T11:25:46.185Z,985.2
2018-12-14T11:26:54.970Z,985
2018-12-14T11:27:59.618Z,985.1
2018-12-14T11:29:03.527Z,985
2018-12-14T11:30:07.201Z,985.1
2018-12-14T11:31:12.415Z,985.2
2018-12-14T11:32:14.178Z,985.2
2018-12-14T11:33:16.509Z,985.2
2018-12-14T11:34:18.130Z,985.2
2018-12-14T11:35:19.408Z,985.2
2018-12-14T11:36:40.442Z,985.2
2018-12-14T11:37:42.365Z,985.1
2018-12-14T11:38:46.841Z,985.3
2018-12-14T11:39:48.105Z,985.4
2018-12-14T11:40:49.423Z,985.3
2018-12-14T11:41:53.154Z,985.3
2018-12-14T11:42:57.314Z,985.3
2018-12-14T11:43:58.608Z,985.3
2018-12-14T11:45:04.777Z,985.2
2018-12-14T11:46:06.057Z,985.3
2018-12-14T11:47:07.414Z,985.3
2018-12-14T11:48:08.755Z,985.3
2018-12-14T11:49:10.303Z,985.2
2018-12-14T11:50:12.388Z,985.3
2018-12-14T11:51:17.231Z,985.3
2018-12-14T11:52:18.739Z,985.3
2018-12-14T11:53:23.059Z,985.1
2018-12-14T11:54:24.541Z,985.3
2018-12-14T11:55:38.509Z,985.3
2018-12-14T11:56:39.878Z,985.4
2018-12-14T11:57:44.221Z,985.5
2018-12-14T11:58:47.093Z,985.4
2018-12-14T11:59:48.804Z,985.4
2018-12-14T12:00:50.078Z,985.4
2018-12-14T12:01:51.668Z,985.2
2018-12-14T12:02:55.774Z,985.1
2018-12-14T12:03:57.607Z,985.2
2018-12-14T12:04:59.160Z,985.2
2018-12-14T12:06:08.566Z,985.1
2018-12-14T12:07:09.946Z,985.2
2018-12-14T12:08:11.550Z,985.2
2018-12-14T12:09:15.732Z,985.2
2018-12-14T12:10:21.373Z,985.2
2018-12-14T12:11:22.737Z,985.1
2018-12-14T12:12:36.134Z,985.1
2018-12-14T12:13:37.520Z,985.1
2018-12-14T12:14:39.054Z,985
2018-12-14T12:15:40.479Z,985
2018-12-14T12:16:41.840Z,985.1
2018-12-14T12:17:50.317Z,985.1
2018-12-14T12:18:51.595Z,985
2018-12-14T12:19:55.738Z,985
2018-12-14T12:20:57.059Z,985
2018-12-14T12:21:58.316Z,985.1
2018-12-14T12:22:59.696Z,985
2018-12-14T12:24:01.215Z,985
2018-12-14T12:25:06.347Z,985
2018-12-14T12:26:07.706Z,985.1
2018-12-14T12:27:10.730Z,985.1
2018-12-14T12:28:14.976Z,985.1
2018-12-14T12:29:18.744Z,985.1
2018-12-14T12:30:20.178Z,985.1
2018-12-14T12:31:27.151Z,985
2018-12-14T12:32:31.095Z,985
2018-12-14T12:33:35.008Z,985
2018-12-14T12:34:36.314Z,985
2018-12-14T12:35:38.100Z,985
2018-12-14T12:36:39.488Z,984.9
2018-12-14T12:37:40.771Z,985
2018-12-14T12:38:42.311Z,985
2018-12-14T12:39:43.919Z,985
2018-12-14T12:40:50.619Z,985
2018-12-14T12:41:52.156Z,985
2018-12-14T12:42:58.507Z,985
2018-12-14T12:43:59.823Z,984.9
2018-12-14T12:45:01.284Z,984.9
2018-12-14T12:46:06.740Z,985
2018-12-14T12:47:12.548Z,985
2018-12-14T12:48:13.788Z,985
2018-12-14T12:49:18.289Z,985
2018-12-14T12:50:19.630Z,985
2018-12-14T12:51:22.266Z,984.9
2018-12-14T12:52:24.756Z,984.9
2018-12-14T12:53:31.023Z,984.9
2018-12-14T12:54:37.233Z,984.7
2018-12-14T12:55:40.346Z,984.9
2018-12-14T12:56:45.750Z,984.9
2018-12-14T12:57:47.304Z,984.9
2018-12-14T12:58:48.822Z,984.9
2018-12-14T12:59:50.097Z,984.9
2018-12-14T13:00:51.429Z,985
2018-12-14T13:01:55.001Z,984.9
2018-12-14T13:02:56.308Z,984.9
2018-12-14T13:03:57.607Z,984.9
2018-12-14T13:05:01.521Z,984.9
2018-12-14T13:06:09.397Z,984.9
2018-12-14T13:07:10.681Z,984.9
2018-12-14T13:08:14.108Z,985
2018-12-14T13:09:15.738Z,984.9
2018-12-14T13:10:17.224Z,984.9
2018-12-14T13:11:18.502Z,984.9
2018-12-14T13:12:30.725Z,984.9
2018-12-14T13:13:35.620Z,984.9
2018-12-14T13:14:40.875Z,984.9
2018-12-14T13:15:42.436Z,984.9
2018-12-14T13:16:43.722Z,984.9
2018-12-14T13:17:48.031Z,984.9
2018-12-14T13:18:52.072Z,984.9
2018-12-14T13:19:53.535Z,984.2
2018-12-14T13:20:54.968Z,984.9
2018-12-14T13:21:56.249Z,984.9
2018-12-14T13:23:01.799Z,985
2018-12-14T13:24:05.962Z,984.9
2018-12-14T13:25:07.247Z,984.9
2018-12-14T13:26:08.789Z,984.9
2018-12-14T13:27:10.364Z,984.9
2018-12-14T13:28:11.630Z,984.9
2018-12-14T13:29:16.419Z,984.8